sensor_id;sensor_type;location;lat;lon;timestamp;temperature;humidity
16441;DHT22;8330;-33.858;151.184;2023-08-31T00:01:11;18.80;99.90
16441;DHT22;8330;-33.858;151.184;2023-08-31T00:03:42;18.90;99.90
16441;DHT22;8330;-33.858;151.184;2023-08-31T00:06:14;19.00;99.90
16441;DHT22;8330;-33.858;151.184;2023-08-31T00:08:45;19.10;99.90
16441;DHT22;8330;-33.858;151.184;2023-08-31T00:11:16;19.20;99.90
16441;DHT22;8330;-33.858;151.184;2023-08-31T00:13:49;19.20;99.90
16441;DHT22;8330;-33.858;151.184;2023-08-31T00:16:25;19.30;99.90
16441;DHT22;8330;-33.858;151.184;2023-08-31T00:18:58;19.30;99.90
16441;DHT22;8330;-33.858;151.184;2023-08-31T00:21:29;19.40;99.90
16441;DHT22;8330;-33.858;151.184;2023-08-31T00:24:00;19.50;99.90
16441;DHT22;8330;-33.858;151.184;2023-08-31T00:26:31;19.60;99.90
16441;DHT22;8330;-33.858;151.184;2023-08-31T00:29:05;19.70;99.90
16441;DHT22;8330;-33.858;151.184;2023-08-31T00:31:38;19.70;99.90
16441;DHT22;8330;-33.858;151.184;2023-08-31T00:34:10;19.70;99.90
16441;DHT22;8330;-33.858;151.184;2023-08-31T00:36:42;19.80;99.90
16441;DHT22;8330;-33.858;151.184;2023-08-31T00:39:14;19.70;99.90
16441;DHT22;8330;-33.858;151.184;2023-08-31T00:41:49;19.60;99.90
16441;DHT22;8330;-33.858;151.184;2023-08-31T00:44:23;19.40;99.90
16441;DHT22;8330;-33.858;151.184;2023-08-31T00:46:56;19.30;99.90
16441;DHT22;8330;-33.858;151.184;2023-08-31T00:49:27;19.30;99.90
16441;DHT22;8330;-33.858;151.184;2023-08-31T00:52:01;19.30;99.90
16441;DHT22;8330;-33.858;151.184;2023-08-31T00:54:32;19.20;99.90
16441;DHT22;8330;-33.858;151.184;2023-08-31T00:57:03;19.20;99.90
16441;DHT22;8330;-33.858;151.184;2023-08-31T00:59:38;19.50;99.90
16441;DHT22;8330;-33.858;151.184;2023-08-31T01:02:17;19.60;99.90
16441;DHT22;8330;-33.858;151.184;2023-08-31T01:05:01;19.70;99.90
16441;DHT22;8330;-33.858;151.184;2023-08-31T01:07:44;19.80;99.90
16441;DHT22;8330;-33.858;151.184;2023-08-31T01:10:25;20.00;99.90
16441;DHT22;8330;-33.858;151.184;2023-08-31T01:13:03;20.10;99.90
16441;DHT22;8330;-33.858;151.184;2023-08-31T01:15:46;20.10;99.90
16441;DHT22;8330;-33.858;151.184;2023-08-31T01:18:22;20.00;99.90
16441;DHT22;8330;-33.858;151.184;2023-08-31T01:21:00;19.90;99.90
16441;DHT22;8330;-33.858;151.184;2023-08-31T01:23:46;19.80;99.90
16441;DHT22;8330;-33.858;151.184;2023-08-31T01:26:17;19.80;99.90
16441;DHT22;8330;-33.858;151.184;2023-08-31T01:28:50;19.90;99.90
16441;DHT22;8330;-33.858;151.184;2023-08-31T01:31:21;20.00;99.90
16441;DHT22;8330;-33.858;151.184;2023-08-31T01:33:53;20.10;99.90
16441;DHT22;8330;-33.858;151.184;2023-08-31T01:36:27;20.20;99.90
16441;DHT22;8330;-33.858;151.184;2023-08-31T01:39:05;20.30;99.90
16441;DHT22;8330;-33.858;151.184;2023-08-31T01:41:40;20.40;99.90
16441;DHT22;8330;-33.858;151.184;2023-08-31T01:44:16;20.50;99.90
16441;DHT22;8330;-33.858;151.184;2023-08-31T01:46:53;20.50;99.90
16441;DHT22;8330;-33.858;151.184;2023-08-31T01:49:24;20.60;99.90
16441;DHT22;8330;-33.858;151.184;2023-08-31T01:51:55;20.50;99.90
16441;DHT22;8330;-33.858;151.184;2023-08-31T01:54:28;20.40;99.90
16441;DHT22;8330;-33.858;151.184;2023-08-31T01:56:59;20.40;99.90
16441;DHT22;8330;-33.858;151.184;2023-08-31T01:59:30;20.20;99.90
16441;DHT22;8330;-33.858;151.184;2023-08-31T02:02:01;20.10;99.90
16441;DHT22;8330;-33.858;151.184;2023-08-31T02:04:32;20.30;99.90
16441;DHT22;8330;-33.858;151.184;2023-08-31T02:07:03;20.40;99.90
16441;DHT22;8330;-33.858;151.184;2023-08-31T02:09:37;20.50;99.90
16441;DHT22;8330;-33.858;151.184;2023-08-31T02:12:08;20.50;99.90
16441;DHT22;8330;-33.858;151.184;2023-08-31T02:14:39;20.60;99.90
16441;DHT22;8330;-33.858;151.184;2023-08-31T02:17:10;20.80;99.90
16441;DHT22;8330;-33.858;151.184;2023-08-31T02:19:41;20.90;99.90
16441;DHT22;8330;-33.858;151.184;2023-08-31T02:22:14;20.80;99.90
16441;DHT22;8330;-33.858;151.184;2023-08-31T02:24:59;20.90;99.90
16441;DHT22;8330;-33.858;151.184;2023-08-31T02:27:30;20.90;99.90
16441;DHT22;8330;-33.858;151.184;2023-08-31T02:30:02;20.70;99.90
16441;DHT22;8330;-33.858;151.184;2023-08-31T02:32:32;20.70;99.90
16441;DHT22;8330;-33.858;151.184;2023-08-31T02:35:04;20.50;99.90
16441;DHT22;8330;-33.858;151.184;2023-08-31T02:37:35;20.50;99.90
16441;DHT22;8330;-33.858;151.184;2023-08-31T02:40:10;20.60;99.90
16441;DHT22;8330;-33.858;151.184;2023-08-31T02:42:43;20.60;99.90
16441;DHT22;8330;-33.858;151.184;2023-08-31T02:45:14;20.80;99.90
16441;DHT22;8330;-33.858;151.184;2023-08-31T02:47:46;20.90;99.90
16441;DHT22;8330;-33.858;151.184;2023-08-31T02:50:17;21.00;99.90
16441;DHT22;8330;-33.858;151.184;2023-08-31T02:52:48;21.10;99.90
16441;DHT22;8330;-33.858;151.184;2023-08-31T02:55:21;21.30;99.90
16441;DHT22;8330;-33.858;151.184;2023-08-31T02:57:53;21.20;99.90
16441;DHT22;8330;-33.858;151.184;2023-08-31T03:00:24;21.40;99.90
16441;DHT22;8330;-33.858;151.184;2023-08-31T03:02:55;21.40;99.90
16441;DHT22;8330;-33.858;151.184;2023-08-31T03:05:26;21.60;99.90
16441;DHT22;8330;-33.858;151.184;2023-08-31T03:07:58;21.60;99.90
16441;DHT22;8330;-33.858;151.184;2023-08-31T03:10:31;21.70;99.90
16441;DHT22;8330;-33.858;151.184;2023-08-31T03:13:02;21.80;99.90
16441;DHT22;8330;-33.858;151.184;2023-08-31T03:15:33;21.70;99.90
16441;DHT22;8330;-33.858;151.184;2023-08-31T03:18:05;21.80;99.90
16441;DHT22;8330;-33.858;151.184;2023-08-31T03:20:36;21.70;99.90
16441;DHT22;8330;-33.858;151.184;2023-08-31T03:23:07;21.70;99.90
16441;DHT22;8330;-33.858;151.184;2023-08-31T03:25:42;21.70;99.90
16441;DHT22;8330;-33.858;151.184;2023-08-31T03:28:14;21.70;99.90
16441;DHT22;8330;-33.858;151.184;2023-08-31T03:30:46;21.40;99.90
16441;DHT22;8330;-33.858;151.184;2023-08-31T03:33:24;21.40;99.90
16441;DHT22;8330;-33.858;151.184;2023-08-31T03:36:00;21.40;99.90
16441;DHT22;8330;-33.858;151.184;2023-08-31T03:38:34;21.70;99.90
16441;DHT22;8330;-33.858;151.184;2023-08-31T03:41:08;21.60;99.90
16441;DHT22;8330;-33.858;151.184;2023-08-31T03:43:40;21.70;99.90
16441;DHT22;8330;-33.858;151.184;2023-08-31T03:46:11;21.60;99.90
16441;DHT22;8330;-33.858;151.184;2023-08-31T03:48:47;21.40;99.90
16441;DHT22;8330;-33.858;151.184;2023-08-31T03:51:18;21.50;99.90
16441;DHT22;8330;-33.858;151.184;2023-08-31T03:53:49;21.60;99.90
16441;DHT22;8330;-33.858;151.184;2023-08-31T03:56:25;21.50;99.90
16441;DHT22;8330;-33.858;151.184;2023-08-31T03:58:57;21.40;99.90
16441;DHT22;8330;-33.858;151.184;2023-08-31T04:01:28;21.40;99.90
16441;DHT22;8330;-33.858;151.184;2023-08-31T04:03:59;21.40;99.90
16441;DHT22;8330;-33.858;151.184;2023-08-31T04:06:31;21.40;99.90
16441;DHT22;8330;-33.858;151.184;2023-08-31T04:09:03;21.40;99.90
16441;DHT22;8330;-33.858;151.184;2023-08-31T04:11:36;21.50;99.90
16441;DHT22;8330;-33.858;151.184;2023-08-31T04:14:08;21.50;99.90
16441;DHT22;8330;-33.858;151.184;2023-08-31T04:16:39;21.50;99.90
16441;DHT22;8330;-33.858;151.184;2023-08-31T04:19:10;21.40;99.90
16441;DHT22;8330;-33.858;151.184;2023-08-31T04:21:41;21.20;99.90
16441;DHT22;8330;-33.858;151.184;2023-08-31T04:24:11;21.20;99.90
16441;DHT22;8330;-33.858;151.184;2023-08-31T04:26:45;21.00;99.90
16441;DHT22;8330;-33.858;151.184;2023-08-31T04:29:18;20.90;99.90
16441;DHT22;8330;-33.858;151.184;2023-08-31T04:31:49;20.90;99.90
16441;DHT22;8330;-33.858;151.184;2023-08-31T04:34:22;20.90;99.90
16441;DHT22;8330;-33.858;151.184;2023-08-31T04:36:54;21.00;99.90
16441;DHT22;8330;-33.858;151.184;2023-08-31T04:39:25;21.10;99.90
16441;DHT22;8330;-33.858;151.184;2023-08-31T04:41:59;21.20;99.90
16441;DHT22;8330;-33.858;151.184;2023-08-31T04:44:31;21.20;99.90
16441;DHT22;8330;-33.858;151.184;2023-08-31T04:47:01;21.30;99.90
16441;DHT22;8330;-33.858;151.184;2023-08-31T04:49:32;21.30;99.90
16441;DHT22;8330;-33.858;151.184;2023-08-31T04:52:03;21.30;99.90
16441;DHT22;8330;-33.858;151.184;2023-08-31T04:54:34;21.30;99.90
16441;DHT22;8330;-33.858;151.184;2023-08-31T04:57:06;21.30;99.90
16441;DHT22;8330;-33.858;151.184;2023-08-31T04:59:38;21.30;99.90
16441;DHT22;8330;-33.858;151.184;2023-08-31T05:02:08;21.30;99.90
16441;DHT22;8330;-33.858;151.184;2023-08-31T05:04:39;21.30;99.90
16441;DHT22;8330;-33.858;151.184;2023-08-31T05:07:11;21.20;99.90
16441;DHT22;8330;-33.858;151.184;2023-08-31T05:09:42;20.80;99.90
16441;DHT22;8330;-33.858;151.184;2023-08-31T05:12:15;20.70;99.90
16441;DHT22;8330;-33.858;151.184;2023-08-31T05:14:47;20.60;99.90
16441;DHT22;8330;-33.858;151.184;2023-08-31T05:17:18;20.60;99.90
16441;DHT22;8330;-33.858;151.184;2023-08-31T05:19:49;20.60;99.90
16441;DHT22;8330;-33.858;151.184;2023-08-31T05:22:20;20.60;99.90
16441;DHT22;8330;-33.858;151.184;2023-08-31T05:24:51;20.50;99.90
16441;DHT22;8330;-33.858;151.184;2023-08-31T05:27:24;20.50;99.90
16441;DHT22;8330;-33.858;151.184;2023-08-31T05:29:56;20.40;99.90
16441;DHT22;8330;-33.858;151.184;2023-08-31T05:32:29;20.40;99.90
16441;DHT22;8330;-33.858;151.184;2023-08-31T05:35:01;20.30;99.90
16441;DHT22;8330;-33.858;151.184;2023-08-31T05:37:33;20.30;99.90
16441;DHT22;8330;-33.858;151.184;2023-08-31T05:40:05;20.30;99.90
16441;DHT22;8330;-33.858;151.184;2023-08-31T05:42:40;20.40;99.90
16441;DHT22;8330;-33.858;151.184;2023-08-31T05:45:11;20.50;99.90
16441;DHT22;8330;-33.858;151.184;2023-08-31T05:47:42;20.60;99.90
16441;DHT22;8330;-33.858;151.184;2023-08-31T05:50:14;20.60;99.90
16441;DHT22;8330;-33.858;151.184;2023-08-31T05:52:44;20.60;99.90
16441;DHT22;8330;-33.858;151.184;2023-08-31T05:55:15;20.50;99.90
16441;DHT22;8330;-33.858;151.184;2023-08-31T05:57:49;20.50;99.90
16441;DHT22;8330;-33.858;151.184;2023-08-31T06:00:21;20.50;99.90
16441;DHT22;8330;-33.858;151.184;2023-08-31T06:02:51;20.40;99.90
16441;DHT22;8330;-33.858;151.184;2023-08-31T06:05:22;20.40;99.90
16441;DHT22;8330;-33.858;151.184;2023-08-31T06:08:09;20.40;99.90
16441;DHT22;8330;-33.858;151.184;2023-08-31T06:10:40;20.50;99.90
16441;DHT22;8330;-33.858;151.184;2023-08-31T06:13:16;20.60;99.90
16441;DHT22;8330;-33.858;151.184;2023-08-31T06:15:48;20.70;99.90
16441;DHT22;8330;-33.858;151.184;2023-08-31T06:18:19;20.80;99.90
16441;DHT22;8330;-33.858;151.184;2023-08-31T06:20:53;21.00;99.90
16441;DHT22;8330;-33.858;151.184;2023-08-31T06:23:24;21.00;99.90
16441;DHT22;8330;-33.858;151.184;2023-08-31T06:25:55;21.10;99.90
16441;DHT22;8330;-33.858;151.184;2023-08-31T06:28:28;21.10;99.90
16441;DHT22;8330;-33.858;151.184;2023-08-31T06:30:59;21.20;99.90
16441;DHT22;8330;-33.858;151.184;2023-08-31T06:33:30;21.00;99.90
16441;DHT22;8330;-33.858;151.184;2023-08-31T06:36:00;21.10;99.90
16441;DHT22;8330;-33.858;151.184;2023-08-31T06:38:32;21.10;99.90
16441;DHT22;8330;-33.858;151.184;2023-08-31T06:41:03;21.00;99.90
16441;DHT22;8330;-33.858;151.184;2023-08-31T06:43:36;20.90;99.90
16441;DHT22;8330;-33.858;151.184;2023-08-31T06:46:18;21.00;99.90
16441;DHT22;8330;-33.858;151.184;2023-08-31T06:48:52;20.90;99.90
16441;DHT22;8330;-33.858;151.184;2023-08-31T06:51:23;20.80;99.90
16441;DHT22;8330;-33.858;151.184;2023-08-31T06:54:02;20.60;99.90
16441;DHT22;8330;-33.858;151.184;2023-08-31T06:56:42;20.40;99.90
16441;DHT22;8330;-33.858;151.184;2023-08-31T06:59:22;20.30;99.90
16441;DHT22;8330;-33.858;151.184;2023-08-31T07:01:54;20.20;99.90
16441;DHT22;8330;-33.858;151.184;2023-08-31T07:04:24;20.00;99.90
16441;DHT22;8330;-33.858;151.184;2023-08-31T07:07:02;19.90;99.90
16441;DHT22;8330;-33.858;151.184;2023-08-31T07:09:33;19.80;99.90
16441;DHT22;8330;-33.858;151.184;2023-08-31T07:12:05;19.80;99.90
16441;DHT22;8330;-33.858;151.184;2023-08-31T07:14:39;19.70;99.90
16441;DHT22;8330;-33.858;151.184;2023-08-31T07:17:12;19.70;99.90
16441;DHT22;8330;-33.858;151.184;2023-08-31T07:19:42;19.60;99.90
16441;DHT22;8330;-33.858;151.184;2023-08-31T07:22:15;19.60;99.90
16441;DHT22;8330;-33.858;151.184;2023-08-31T07:24:48;19.50;99.90
16441;DHT22;8330;-33.858;151.184;2023-08-31T07:27:22;19.40;99.90
16441;DHT22;8330;-33.858;151.184;2023-08-31T07:29:55;19.30;99.90
16441;DHT22;8330;-33.858;151.184;2023-08-31T07:32:26;19.20;99.90
16441;DHT22;8330;-33.858;151.184;2023-08-31T07:34:58;19.10;99.90
16441;DHT22;8330;-33.858;151.184;2023-08-31T07:37:32;19.10;99.90
16441;DHT22;8330;-33.858;151.184;2023-08-31T07:40:05;19.00;99.90
16441;DHT22;8330;-33.858;151.184;2023-08-31T07:42:37;19.00;99.90
16441;DHT22;8330;-33.858;151.184;2023-08-31T07:45:11;18.90;99.90
16441;DHT22;8330;-33.858;151.184;2023-08-31T07:47:42;18.90;99.90
16441;DHT22;8330;-33.858;151.184;2023-08-31T07:50:14;18.80;99.90
16441;DHT22;8330;-33.858;151.184;2023-08-31T07:52:45;18.80;99.90
16441;DHT22;8330;-33.858;151.184;2023-08-31T07:55:16;18.70;99.90
16441;DHT22;8330;-33.858;151.184;2023-08-31T07:57:47;18.70;99.90
16441;DHT22;8330;-33.858;151.184;2023-08-31T08:00:20;18.60;99.90
16441;DHT22;8330;-33.858;151.184;2023-08-31T08:02:51;18.60;99.90
16441;DHT22;8330;-33.858;151.184;2023-08-31T08:05:23;18.60;99.90
16441;DHT22;8330;-33.858;151.184;2023-08-31T08:07:54;18.60;99.90
16441;DHT22;8330;-33.858;151.184;2023-08-31T08:10:25;18.50;99.90
16441;DHT22;8330;-33.858;151.184;2023-08-31T08:12:56;18.50;99.90
16441;DHT22;8330;-33.858;151.184;2023-08-31T08:15:31;18.50;99.90
16441;DHT22;8330;-33.858;151.184;2023-08-31T08:18:02;18.50;99.90
16441;DHT22;8330;-33.858;151.184;2023-08-31T08:20:33;18.40;99.90
16441;DHT22;8330;-33.858;151.184;2023-08-31T08:23:04;18.40;99.90
16441;DHT22;8330;-33.858;151.184;2023-08-31T08:25:36;18.40;99.90
16441;DHT22;8330;-33.858;151.184;2023-08-31T08:28:07;18.30;99.90
16441;DHT22;8330;-33.858;151.184;2023-08-31T08:30:41;18.30;99.90
16441;DHT22;8330;-33.858;151.184;2023-08-31T08:33:12;18.30;99.90
16441;DHT22;8330;-33.858;151.184;2023-08-31T08:35:43;18.30;99.90
16441;DHT22;8330;-33.858;151.184;2023-08-31T08:38:14;18.30;99.90
16441;DHT22;8330;-33.858;151.184;2023-08-31T08:40:45;18.30;99.90
16441;DHT22;8330;-33.858;151.184;2023-08-31T08:43:16;18.30;99.90
16441;DHT22;8330;-33.858;151.184;2023-08-31T08:45:54;18.30;99.90
16441;DHT22;8330;-33.858;151.184;2023-08-31T08:48:24;18.20;99.90
16441;DHT22;8330;-33.858;151.184;2023-08-31T08:50:56;18.20;99.90
16441;DHT22;8330;-33.858;151.184;2023-08-31T08:53:28;18.20;99.90
16441;DHT22;8330;-33.858;151.184;2023-08-31T08:56:00;18.20;99.90
16441;DHT22;8330;-33.858;151.184;2023-08-31T08:58:32;18.20;99.90
16441;DHT22;8330;-33.858;151.184;2023-08-31T09:01:07;18.20;99.90
16441;DHT22;8330;-33.858;151.184;2023-08-31T09:03:40;18.10;99.90
16441;DHT22;8330;-33.858;151.184;2023-08-31T09:06:11;18.10;99.90
16441;DHT22;8330;-33.858;151.184;2023-08-31T09:08:43;18.10;99.90
16441;DHT22;8330;-33.858;151.184;2023-08-31T09:11:21;18.10;99.90
16441;DHT22;8330;-33.858;151.184;2023-08-31T09:13:52;18.10;99.90
16441;DHT22;8330;-33.858;151.184;2023-08-31T09:16:29;18.10;99.90
16441;DHT22;8330;-33.858;151.184;2023-08-31T09:19:00;18.10;99.90
16441;DHT22;8330;-33.858;151.184;2023-08-31T09:21:48;18.10;99.90
16441;DHT22;8330;-33.858;151.184;2023-08-31T09:24:19;18.10;99.90
16441;DHT22;8330;-33.858;151.184;2023-08-31T09:26:55;18.10;99.90
16441;DHT22;8330;-33.858;151.184;2023-08-31T09:29:28;18.10;99.90
16441;DHT22;8330;-33.858;151.184;2023-08-31T09:32:02;18.10;99.90
16441;DHT22;8330;-33.858;151.184;2023-08-31T09:34:37;18.10;99.90
16441;DHT22;8330;-33.858;151.184;2023-08-31T09:37:09;18.10;99.90
16441;DHT22;8330;-33.858;151.184;2023-08-31T09:39:41;18.10;99.90
16441;DHT22;8330;-33.858;151.184;2023-08-31T09:42:11;18.10;99.90
16441;DHT22;8330;-33.858;151.184;2023-08-31T09:44:44;18.10;99.90
16441;DHT22;8330;-33.858;151.184;2023-08-31T09:47:17;18.20;99.90
16441;DHT22;8330;-33.858;151.184;2023-08-31T09:49:50;18.20;99.90
16441;DHT22;8330;-33.858;151.184;2023-08-31T09:52:21;18.30;99.90
16441;DHT22;8330;-33.858;151.184;2023-08-31T09:54:54;18.30;99.90
16441;DHT22;8330;-33.858;151.184;2023-08-31T09:57:26;18.30;99.90
16441;DHT22;8330;-33.858;151.184;2023-08-31T09:59:57;18.30;99.90
16441;DHT22;8330;-33.858;151.184;2023-08-31T10:02:31;18.30;99.90
16441;DHT22;8330;-33.858;151.184;2023-08-31T10:05:02;18.30;99.90
16441;DHT22;8330;-33.858;151.184;2023-08-31T10:07:33;18.30;99.90
16441;DHT22;8330;-33.858;151.184;2023-08-31T10:10:05;18.30;99.90
16441;DHT22;8330;-33.858;151.184;2023-08-31T10:12:37;18.30;99.90
16441;DHT22;8330;-33.858;151.184;2023-08-31T10:15:08;18.30;99.90
16441;DHT22;8330;-33.858;151.184;2023-08-31T10:17:42;18.30;99.90
16441;DHT22;8330;-33.858;151.184;2023-08-31T10:20:16;18.30;99.90
16441;DHT22;8330;-33.858;151.184;2023-08-31T10:22:47;18.20;99.90
16441;DHT22;8330;-33.858;151.184;2023-08-31T10:25:19;18.20;99.90
16441;DHT22;8330;-33.858;151.184;2023-08-31T10:27:50;18.20;99.90
16441;DHT22;8330;-33.858;151.184;2023-08-31T10:30:28;18.10;99.90
16441;DHT22;8330;-33.858;151.184;2023-08-31T10:33:23;18.20;99.90
16441;DHT22;8330;-33.858;151.184;2023-08-31T10:35:56;18.10;99.90
16441;DHT22;8330;-33.858;151.184;2023-08-31T10:38:28;18.10;99.90
16441;DHT22;8330;-33.858;151.184;2023-08-31T10:41:17;18.00;99.90
16441;DHT22;8330;-33.858;151.184;2023-08-31T10:43:52;18.00;99.90
16441;DHT22;8330;-33.858;151.184;2023-08-31T10:46:29;18.00;99.90
16441;DHT22;8330;-33.858;151.184;2023-08-31T10:49:12;18.00;99.90
16441;DHT22;8330;-33.858;151.184;2023-08-31T10:51:43;18.00;99.90
16441;DHT22;8330;-33.858;151.184;2023-08-31T10:54:30;18.00;99.90
16441;DHT22;8330;-33.858;151.184;2023-08-31T10:57:06;17.90;99.90
16441;DHT22;8330;-33.858;151.184;2023-08-31T10:59:45;17.90;99.90
16441;DHT22;8330;-33.858;151.184;2023-08-31T11:02:32;17.90;99.90
16441;DHT22;8330;-33.858;151.184;2023-08-31T11:05:07;17.90;99.90
16441;DHT22;8330;-33.858;151.184;2023-08-31T11:07:39;17.90;99.90
16441;DHT22;8330;-33.858;151.184;2023-08-31T11:10:12;17.80;99.90
16441;DHT22;8330;-33.858;151.184;2023-08-31T11:12:42;17.80;99.90
16441;DHT22;8330;-33.858;151.184;2023-08-31T11:15:14;17.70;99.90
16441;DHT22;8330;-33.858;151.184;2023-08-31T11:17:46;17.60;99.90
16441;DHT22;8330;-33.858;151.184;2023-08-31T11:20:21;17.60;99.90
16441;DHT22;8330;-33.858;151.184;2023-08-31T11:22:55;17.50;99.90
16441;DHT22;8330;-33.858;151.184;2023-08-31T11:25:27;17.50;99.90
16441;DHT22;8330;-33.858;151.184;2023-08-31T11:28:03;17.50;99.90
16441;DHT22;8330;-33.858;151.184;2023-08-31T11:30:34;17.50;99.90
16441;DHT22;8330;-33.858;151.184;2023-08-31T11:33:06;17.50;99.90
16441;DHT22;8330;-33.858;151.184;2023-08-31T11:35:43;17.40;99.90
16441;DHT22;8330;-33.858;151.184;2023-08-31T11:38:14;17.40;99.90
16441;DHT22;8330;-33.858;151.184;2023-08-31T11:40:45;17.40;99.90
16441;DHT22;8330;-33.858;151.184;2023-08-31T11:43:19;17.40;99.90
16441;DHT22;8330;-33.858;151.184;2023-08-31T11:46:04;17.30;99.90
16441;DHT22;8330;-33.858;151.184;2023-08-31T11:48:36;17.30;99.90
16441;DHT22;8330;-33.858;151.184;2023-08-31T11:51:11;17.20;99.90
16441;DHT22;8330;-33.858;151.184;2023-08-31T11:53:44;17.20;99.90
16441;DHT22;8330;-33.858;151.184;2023-08-31T11:56:14;17.20;99.90
16441;DHT22;8330;-33.858;151.184;2023-08-31T11:58:46;17.20;99.90
16441;DHT22;8330;-33.858;151.184;2023-08-31T12:01:21;17.10;99.90
16441;DHT22;8330;-33.858;151.184;2023-08-31T12:03:51;17.10;99.90
16441;DHT22;8330;-33.858;151.184;2023-08-31T12:06:34;17.10;99.90
16441;DHT22;8330;-33.858;151.184;2023-08-31T12:09:07;17.00;99.90
16441;DHT22;8330;-33.858;151.184;2023-08-31T12:11:39;17.00;99.90
16441;DHT22;8330;-33.858;151.184;2023-08-31T12:14:24;17.00;99.90
16441;DHT22;8330;-33.858;151.184;2023-08-31T12:17:03;17.00;99.90
16441;DHT22;8330;-33.858;151.184;2023-08-31T12:19:36;16.90;99.90
16441;DHT22;8330;-33.858;151.184;2023-08-31T12:22:09;16.90;99.90
16441;DHT22;8330;-33.858;151.184;2023-08-31T12:24:43;16.90;99.90
16441;DHT22;8330;-33.858;151.184;2023-08-31T12:27:14;16.90;99.90
16441;DHT22;8330;-33.858;151.184;2023-08-31T12:29:45;16.90;99.90
16441;DHT22;8330;-33.858;151.184;2023-08-31T12:32:17;16.80;99.90
16441;DHT22;8330;-33.858;151.184;2023-08-31T12:34:49;16.80;99.90
16441;DHT22;8330;-33.858;151.184;2023-08-31T12:37:23;16.80;99.90
16441;DHT22;8330;-33.858;151.184;2023-08-31T12:39:54;16.70;99.90
16441;DHT22;8330;-33.858;151.184;2023-08-31T12:42:26;16.70;99.90
16441;DHT22;8330;-33.858;151.184;2023-08-31T12:44:56;16.70;99.90
16441;DHT22;8330;-33.858;151.184;2023-08-31T12:47:27;16.70;99.90
16441;DHT22;8330;-33.858;151.184;2023-08-31T12:49:58;16.60;99.90
16441;DHT22;8330;-33.858;151.184;2023-08-31T12:52:32;16.70;99.90
16441;DHT22;8330;-33.858;151.184;2023-08-31T12:55:04;16.70;99.90
16441;DHT22;8330;-33.858;151.184;2023-08-31T12:57:39;16.60;99.90
16441;DHT22;8330;-33.858;151.184;2023-08-31T13:00:10;16.50;99.90
16441;DHT22;8330;-33.858;151.184;2023-08-31T13:02:53;16.50;99.90
16441;DHT22;8330;-33.858;151.184;2023-08-31T13:05:25;16.50;99.90
16441;DHT22;8330;-33.858;151.184;2023-08-31T13:08:11;16.40;99.90
16441;DHT22;8330;-33.858;151.184;2023-08-31T13:10:43;16.50;99.90
16441;DHT22;8330;-33.858;151.184;2023-08-31T13:13:22;16.50;99.90
16441;DHT22;8330;-33.858;151.184;2023-08-31T13:15:53;16.50;99.90
16441;DHT22;8330;-33.858;151.184;2023-08-31T13:18:24;16.50;99.90
16441;DHT22;8330;-33.858;151.184;2023-08-31T13:20:56;16.50;99.90
16441;DHT22;8330;-33.858;151.184;2023-08-31T13:23:31;16.50;99.90
16441;DHT22;8330;-33.858;151.184;2023-08-31T13:26:01;16.50;99.90
16441;DHT22;8330;-33.858;151.184;2023-08-31T13:28:36;16.40;99.90
16441;DHT22;8330;-33.858;151.184;2023-08-31T13:31:07;16.40;99.90
16441;DHT22;8330;-33.858;151.184;2023-08-31T13:33:37;16.30;99.90
16441;DHT22;8330;-33.858;151.184;2023-08-31T13:36:08;16.30;99.90
16441;DHT22;8330;-33.858;151.184;2023-08-31T13:38:41;16.20;99.90
16441;DHT22;8330;-33.858;151.184;2023-08-31T13:41:12;16.10;99.90
16441;DHT22;8330;-33.858;151.184;2023-08-31T13:43:43;16.10;99.90
16441;DHT22;8330;-33.858;151.184;2023-08-31T13:46:14;16.10;99.90
16441;DHT22;8330;-33.858;151.184;2023-08-31T13:48:45;15.90;99.90
16441;DHT22;8330;-33.858;151.184;2023-08-31T13:51:16;15.90;99.90
16441;DHT22;8330;-33.858;151.184;2023-08-31T13:53:54;15.80;99.90
16441;DHT22;8330;-33.858;151.184;2023-08-31T13:56:33;15.80;99.90
16441;DHT22;8330;-33.858;151.184;2023-08-31T13:59:05;15.80;99.90
16441;DHT22;8330;-33.858;151.184;2023-08-31T14:01:35;15.80;99.90
16441;DHT22;8330;-33.858;151.184;2023-08-31T14:04:07;15.60;99.90
16441;DHT22;8330;-33.858;151.184;2023-08-31T14:06:38;15.60;99.90
16441;DHT22;8330;-33.858;151.184;2023-08-31T14:09:11;15.60;99.90
16441;DHT22;8330;-33.858;151.184;2023-08-31T14:11:44;15.60;99.90
16441;DHT22;8330;-33.858;151.184;2023-08-31T14:14:14;15.60;99.90
16441;DHT22;8330;-33.858;151.184;2023-08-31T14:16:46;15.70;99.90
16441;DHT22;8330;-33.858;151.184;2023-08-31T14:19:18;15.70;99.90
16441;DHT22;8330;-33.858;151.184;2023-08-31T14:21:49;15.70;99.90
16441;DHT22;8330;-33.858;151.184;2023-08-31T14:24:23;15.70;99.90
16441;DHT22;8330;-33.858;151.184;2023-08-31T14:26:55;15.70;99.90
16441;DHT22;8330;-33.858;151.184;2023-08-31T14:29:26;15.70;99.90
16441;DHT22;8330;-33.858;151.184;2023-08-31T14:31:57;15.70;99.90
16441;DHT22;8330;-33.858;151.184;2023-08-31T14:34:29;15.70;99.90
16441;DHT22;8330;-33.858;151.184;2023-08-31T14:37:07;15.70;99.90
16441;DHT22;8330;-33.858;151.184;2023-08-31T14:39:41;15.70;99.90
16441;DHT22;8330;-33.858;151.184;2023-08-31T14:42:13;15.70;99.90
16441;DHT22;8330;-33.858;151.184;2023-08-31T14:44:47;15.70;99.90
16441;DHT22;8330;-33.858;151.184;2023-08-31T14:47:19;15.60;99.90
16441;DHT22;8330;-33.858;151.184;2023-08-31T14:49:50;15.60;99.90
16441;DHT22;8330;-33.858;151.184;2023-08-31T14:52:21;15.60;99.90
16441;DHT22;8330;-33.858;151.184;2023-08-31T14:54:54;15.60;99.90
16441;DHT22;8330;-33.858;151.184;2023-08-31T14:57:25;15.70;99.90
16441;DHT22;8330;-33.858;151.184;2023-08-31T14:59:56;15.70;99.90
16441;DHT22;8330;-33.858;151.184;2023-08-31T15:02:27;15.60;99.90
16441;DHT22;8330;-33.858;151.184;2023-08-31T15:04:58;15.70;99.90
16441;DHT22;8330;-33.858;151.184;2023-08-31T15:07:29;15.70;99.90
16441;DHT22;8330;-33.858;151.184;2023-08-31T15:10:03;15.80;99.90
16441;DHT22;8330;-33.858;151.184;2023-08-31T15:12:35;15.70;99.90
16441;DHT22;8330;-33.858;151.184;2023-08-31T15:15:07;15.60;99.90
16441;DHT22;8330;-33.858;151.184;2023-08-31T15:17:38;15.50;99.90
16441;DHT22;8330;-33.858;151.184;2023-08-31T15:20:10;15.50;99.90
16441;DHT22;8330;-33.858;151.184;2023-08-31T15:22:41;15.40;99.90
16441;DHT22;8330;-33.858;151.184;2023-08-31T15:25:14;15.40;99.90
16441;DHT22;8330;-33.858;151.184;2023-08-31T15:27:45;15.30;99.90
16441;DHT22;8330;-33.858;151.184;2023-08-31T15:30:19;15.20;99.90
16441;DHT22;8330;-33.858;151.184;2023-08-31T15:32:52;15.10;99.90
16441;DHT22;8330;-33.858;151.184;2023-08-31T15:35:23;15.10;99.90
16441;DHT22;8330;-33.858;151.184;2023-08-31T15:37:54;15.10;99.90